Time;durP1;ratioP1;P1;durP2;ratioP2;P2;SDS_P1;SDS_P2;PMS_P1;PMS_P2;Temp;Humidity;BMP_temperature;BMP_pressure;BME280_temperature;BME280_humidity;BME280_pressure;Samples;Min_cycle;Max_cycle;Signal;HPM_P1;HPM_P2
2021/07/25 00:00:54;;;;;;;10.13;6.55;;;;;;;22.50;56.83;98459.50;5095316;28;20058;-92
2021/07/25 00:03:19;;;;;;;9.82;7.13;;;;;;;22.53;56.54;98472.78;5096115;28;20109;-92
2021/07/25 00:05:45;;;;;;;9.80;6.75;;;;;;;22.49;55.94;98457.78;5095827;28;20497;-91
2021/07/25 00:11:13;;;;;;;12.25;6.90;;;;;;;22.72;55.67;98409.81;5108129;27;20367;-92
2021/07/25 00:13:40;;;;;;;9.95;6.68;;;;;;;22.68;55.35;98403.75;5092052;28;20469;-92
2021/07/25 00:16:06;;;;;;;11.73;6.88;;;;;;;22.56;56.62;98394.81;5096035;28;20051;-91
2021/07/25 00:18:32;;;;;;;14.25;7.05;;;;;;;22.51;56.99;98393.47;5096953;28;20096;-92
2021/07/25 00:20:58;;;;;;;10.63;6.80;;;;;;;22.55;58.48;98409.38;5091635;28;20072;-92
2021/07/25 00:23:27;;;;;;;12.13;7.07;;;;;;;22.59;58.50;98417.22;5091651;28;20036;-92
2021/07/25 00:25:56;;;;;;;;;;;;;;;22.79;55.86;98439.97;5091247;28;20059;-92
2021/07/25 00:28:32;;;;;;;14.82;7.18;;;;;;;22.97;54.58;98441.16;5090704;28;19920;-91
2021/07/25 00:31:00;;;;;;;13.48;6.93;;;;;;;23.20;52.57;98463.69;5090504;28;20060;-92
2021/07/25 00:33:26;;;;;;;12.18;7.15;;;;;;;23.36;51.46;98468.69;5091586;28;20175;-93
2021/07/25 00:35:53;;;;;;;12.23;7.05;;;;;;;23.48;51.21;98475.78;5091171;28;20140;-91
2021/07/25 00:38:19;;;;;;;8.45;5.97;;;;;;;23.55;50.82;98463.41;5091850;28;20037;-93
2021/07/25 00:40:46;;;;;;;9.95;6.80;;;;;;;23.66;51.18;98456.19;5092658;28;20500;-93
2021/07/25 00:43:25;;;;;;;9.63;6.53;;;;;;;23.69;50.54;98431.50;5092128;28;20123;-94
2021/07/25 00:45:51;;;;;;;12.95;7.53;;;;;;;23.73;50.13;98417.53;5091880;28;20063;-92
2021/07/25 00:48:17;;;;;;;9.43;6.40;;;;;;;23.77;50.65;98423.59;5091684;28;20032;-93
2021/07/25 00:50:43;;;;;;;9.93;6.18;;;;;;;23.74;50.88;98438.25;5091966;28;20045;-93
2021/07/25 00:53:09;;;;;;;10.68;6.40;;;;;;;23.72;51.89;98433.94;5091675;28;20093;-93
2021/07/25 00:55:36;;;;;;;14.48;7.22;;;;;;;23.57;51.64;98403.56;5091406;28;20385;-93
2021/07/25 00:58:02;;;;;;;8.48;6.10;;;;;;;23.54;51.54;98401.97;5099136;28;20048;-92
2021/07/25 01:00:29;;;;;;;8.75;6.32;;;;;;;23.48;51.32;98378.06;5104830;28;20382;-92
2021/07/25 01:03:02;;;;;;;10.27;6.88;;;;;;;23.40;51.12;98342.63;5090838;28;20052;-93
2021/07/25 01:05:41;;;;;;;11.00;7.53;;;;;;;23.29;51.14;98307.41;5075967;28;20036;-92
2021/07/25 01:08:14;;;;;;;10.77;6.90;;;;;;;23.21;51.06;98293.66;5091233;28;20525;-93
2021/07/25 01:10:41;;;;;;;12.77;6.80;;;;;;;23.27;51.79;98347.34;5090610;28;20041;-93
2021/07/25 01:13:11;;;;;;;10.05;6.60;;;;;;;23.20;51.05;98340.75;5090728;28;20047;-93
2021/07/25 01:15:40;;;;;;;13.98;6.70;;;;;;;23.26;51.78;98334.81;5091386;28;20036;-93
2021/07/25 01:18:06;;;;;;;12.23;6.60;;;;;;;23.21;51.06;98332.50;5090614;28;20075;-94
2021/07/25 01:20:34;;;;;;;11.00;6.90;;;;;;;23.21;50.48;98335.19;5087903;28;20450;-93
2021/07/25 01:23:00;;;;;;;11.82;6.75;;;;;;;23.32;50.25;98337.00;5077061;28;20033;-93
2021/07/25 01:25:27;;;;;;;10.25;6.72;;;;;;;23.43;50.23;98355.91;5077917;28;20052;-92
2021/07/25 01:27:57;;;;;;;10.98;7.15;;;;;;;22.97;50.73;98327.28;5077617;28;20052;-92
2021/07/25 01:30:25;;;;;;;14.68;6.90;;;;;;;22.98;50.24;98329.00;5076269;28;20132;-94
2021/07/25 01:32:55;;;;;;;14.13;6.88;;;;;;;23.04;50.26;98308.66;5076904;28;20047;-93
2021/07/25 01:35:22;;;;;;;9.77;6.97;;;;;;;23.14;49.78;98306.91;5077676;28;20037;-94
2021/07/25 01:37:50;;;;;;;8.45;6.10;;;;;;;23.25;50.37;98330.34;5077106;28;20128;-93
2021/07/25 01:40:20;;;;;;;10.50;6.40;;;;;;;23.24;50.80;98364.75;5077170;28;20040;-92
2021/07/25 01:42:47;;;;;;;8.95;6.53;;;;;;;23.31;49.02;98382.25;5076904;28;20048;-92
2021/07/25 01:45:13;;;;;;;10.35;6.68;;;;;;;23.49;48.96;98397.94;5076129;28;20492;-92
2021/07/25 01:47:39;;;;;;;12.38;7.00;;;;;;;23.51;48.38;98369.69;5073687;28;20494;-93
2021/07/25 01:50:06;;;;;;;11.27;6.35;;;;;;;23.43;48.54;98350.47;5076739;28;20032;-94
2021/07/25 01:52:33;;;;;;;14.77;6.75;;;;;;;23.67;47.74;98374.63;5072524;28;20041;-93
2021/07/25 01:55:00;;;;;;;13.98;6.68;;;;;;;23.68;48.43;98384.50;5076966;28;20037;-93
2021/07/25 01:57:26;;;;;;;11.20;6.80;;;;;;;23.55;47.73;98360.28;5076760;28;20036;-93
2021/07/25 01:59:53;;;;;;;8.88;6.45;;;;;;;23.51;48.37;98358.81;5077293;28;20429;-93
2021/07/25 02:02:18;;;;;;;10.48;6.60;;;;;;;23.44;48.41;98335.06;5076835;28;20044;-93
2021/07/25 02:04:44;;;;;;;10.77;6.38;;;;;;;23.49;48.81;98357.25;5077025;28;20037;-93
2021/07/25 02:07:10;;;;;;;8.68;6.38;;;;;;;23.52;47.90;98370.53;5076509;28;20041;-93
2021/07/25 02:09:36;;;;;;;10.65;6.10;;;;;;;23.44;48.06;98344.03;5076519;28;20144;-95
2021/07/25 02:12:05;;;;;;;11.80;6.60;;;;;;;23.64;47.80;98364.06;5076874;28;20044;-94
2021/07/25 02:14:31;;;;;;;9.73;6.82;;;;;;;23.49;48.82;98338.25;5077417;28;20468;-94
2021/07/25 02:16:57;;;;;;;12.80;6.57;;;;;;;23.53;48.92;98345.97;5076683;28;20071;-94
2021/07/25 02:19:23;;;;;;;13.45;6.63;;;;;;;23.44;49.63;98343.19;5077023;28;20450;-93
2021/07/25 02:21:49;;;;;;;10.18;6.35;;;;;;;23.34;49.86;98367.56;5077373;28;20056;-94
2021/07/25 02:24:15;;;;;;;11.05;6.93;;;;;;;23.11;50.60;98348.69;5076476;28;20040;-93
2021/07/25 02:26:41;;;;;;;10.02;6.50;;;;;;;23.11;51.46;98342.41;5076556;28;20040;-94
2021/07/25 02:29:08;;;;;;;10.93;6.10;;;;;;;23.10;50.77;98343.41;5076586;28;20064;-92
2021/07/25 02:31:34;;;;;;;10.20;6.65;;;;;;;23.22;50.98;98363.19;5076355;28;20094;-94
2021/07/25 02:34:00;;;;;;;12.52;6.45;;;;;;;22.99;51.30;98344.28;5075958;28;20041;-93
2021/07/25 02:36:26;;;;;;;11.80;6.40;;;;;;;22.91;51.64;98347.63;5076402;28;20041;-93
2021/07/25 02:38:52;;;;;;;8.70;6.00;;;;;;;22.90;51.65;98343.22;5076731;28;20128;-94
2021/07/25 02:41:18;;;;;;;11.25;6.72;;;;;;;23.04;50.26;98358.34;5076841;28;20041;-93
2021/07/25 02:43:43;;;;;;;13.43;6.55;;;;;;;23.05;50.94;98360.06;5076129;28;20102;-93
2021/07/25 02:46:11;;;;;;;9.82;6.78;;;;;;;23.11;51.29;98367.66;5076320;28;20074;-94
2021/07/25 02:48:37;;;;;;;9.65;6.60;;;;;;;23.05;51.46;98365.50;5076403;28;20116;-93
2021/07/25 02:51:02;;;;;;;11.82;6.45;;;;;;;22.86;51.81;98363.44;5077112;28;20115;-93
2021/07/25 02:53:28;;;;;;;8.90;6.50;;;;;;;22.75;51.88;98349.94;5076303;28;20036;-95
2021/07/25 02:55:54;;;;;;;10.48;7.03;;;;;;;22.63;51.88;98335.53;5076035;28;20131;-92
2021/07/25 02:58:20;;;;;;;12.60;6.68;;;;;;;22.69;53.01;98355.88;5075609;28;20036;-93
2021/07/25 03:00:46;;;;;;;11.25;6.43;;;;;;;22.76;52.46;98352.50;5075680;28;20093;-95
2021/07/25 03:03:14;;;;;;;9.65;6.60;;;;;;;22.64;52.69;98345.41;5076242;28;20072;-93
2021/07/25 03:05:39;;;;;;;11.38;6.35;;;;;;;22.50;52.05;98322.16;5075926;28;20047;-93
2021/07/25 03:08:06;;;;;;;8.65;6.30;;;;;;;22.48;52.95;98328.69;5075923;28;20037;-95
2021/07/25 03:10:31;;;;;;;13.52;6.75;;;;;;;22.62;52.62;98360.06;5075617;28;20136;-94
2021/07/25 03:12:57;;;;;;;9.13;6.30;;;;;;;22.53;53.48;98348.13;5075670;28;20067;-93
2021/07/25 03:15:23;;;;;;;11.30;6.70;;;;;;;22.52;53.23;98344.56;5075420;28;20044;-92
2021/07/25 03:17:49;;;;;;;9.63;6.78;;;;;;;22.51;53.72;98344.69;5075938;28;20033;-94
2021/07/25 03:20:17;;;;;;;11.75;6.53;;;;;;;22.53;52.53;98337.28;5076015;28;20044;-94
2021/07/25 03:22:43;;;;;;;14.63;7.38;;;;;;;22.62;53.09;98341.97;5081994;28;20509;-93
2021/07/25 03:25:10;;;;;;;11.75;6.47;;;;;;;22.73;52.36;98351.91;5075347;28;20051;-93
2021/07/25 03:27:36;;;;;;;11.35;6.25;;;;;;;22.79;51.66;98350.50;5075074;28;20062;-93
2021/07/25 03:30:01;;;;;;;8.95;6.60;;;;;;;22.91;51.84;98349.50;5075255;28;20481;-93
2021/07/25 03:32:27;;;;;;;13.98;7.28;;;;;;;23.26;49.22;98351.06;5075433;28;20048;-94
2021/07/25 03:34:53;;;;;;;13.27;6.50;;;;;;;23.40;48.64;98342.63;5075165;28;20048;-93
2021/07/25 03:37:20;;;;;;;13.80;7.35;;;;;;;23.58;48.43;98338.28;5074860;28;20044;-94
2021/07/25 03:39:50;;;;;;;10.23;6.75;;;;;;;23.70;48.67;98347.22;5076765;28;20036;-93
2021/07/25 03:42:15;;;;;;;10.43;6.75;;;;;;;23.66;49.24;98344.88;5075426;28;20059;-92
2021/07/25 03:44:42;;;;;;;10.32;6.88;;;;;;;23.61;48.62;98322.72;5075322;28;20543;-94
2021/07/25 03:47:08;;;;;;;9.98;6.75;;;;;;;23.63;48.70;98334.31;5075678;28;20117;-93
2021/07/25 03:49:34;;;;;;;9.18;6.95;;;;;;;23.67;48.73;98344.75;5075282;28;20559;-93
2021/07/25 03:52:00;;;;;;;11.27;6.82;;;;;;;23.60;48.93;98332.72;5075837;28;20130;-94
2021/07/25 03:54:27;;;;;;;10.57;7.13;;;;;;;23.38;49.96;98331.03;5075190;28;20101;-93
2021/07/25 03:56:53;;;;;;;10.23;6.88;;;;;;;23.32;50.22;98335.13;5074931;28;20045;-94
2021/07/25 03:59:19;;;;;;;12.98;6.93;;;;;;;23.35;49.82;98339.44;5075340;28;20394;-94
2021/07/25 04:01:46;;;;;;;8.70;6.25;;;;;;;23.38;50.41;98358.19;5075383;28;20593;-94
2021/07/25 04:04:12;;;;;;;12.13;7.10;;;;;;;23.12;51.10;98336.84;5075749;28;20074;-95
2021/07/25 04:06:38;;;;;;;9.80;6.40;;;;;;;22.98;51.78;98347.97;5075822;28;20037;-95
2021/07/25 04:09:04;;;;;;;11.90;7.03;;;;;;;22.96;52.14;98368.94;5075973;28;20102;-95
2021/07/25 04:11:31;;;;;;;9.95;6.82;;;;;;;22.50;53.16;98348.41;5075073;28;20044;-94
2021/07/25 04:13:57;;;;;;;9.70;6.93;;;;;;;22.52;53.77;98370.81;5074965;28;20060;-93
2021/07/25 04:16:23;;;;;;;10.75;6.97;;;;;;;22.33;54.50;98385.84;5074919;28;20048;-94
2021/07/25 04:18:49;;;;;;;11.73;7.10;;;;;;;22.10;54.86;98360.63;5075192;28;20049;-94
2021/07/25 04:21:15;;;;;;;9.70;6.57;;;;;;;22.10;55.52;98362.47;5075277;28;20098;-96
2021/07/25 04:23:42;;;;;;;12.32;7.07;;;;;;;21.92;55.88;98343.13;5075222;28;20093;-93
2021/07/25 04:26:08;;;;;;;11.30;7.05;;;;;;;21.95;55.80;98351.88;5074784;28;20051;-93
2021/07/25 04:28:36;;;;;;;11.43;6.88;;;;;;;22.07;55.38;98371.69;5074032;28;20044;-92
2021/07/25 04:31:02;;;;;;;11.35;7.35;;;;;;;22.02;55.07;98354.09;5073966;28;20124;-91
2021/07/25 04:33:30;;;;;;;10.70;7.05;;;;;;;22.13;54.79;98360.34;5074079;28;20064;-92
2021/07/25 04:35:57;;;;;;;10.50;6.43;;;;;;;22.19;54.75;98369.00;5074757;28;20069;-92
2021/07/25 04:38:23;;;;;;;12.25;7.45;;;;;;;22.11;55.32;98351.50;5074361;28;20094;-94
2021/07/25 04:40:57;;;;;;;13.57;6.80;;;;;;;22.13;55.96;98375.75;5074427;28;20037;-94
2021/07/25 04:43:28;;;;;;;11.70;7.03;;;;;;;22.09;55.85;98368.84;5074706;28;20433;-92
2021/07/25 04:46:01;;;;;;;10.38;6.70;;;;;;;21.97;56.09;98351.78;5074290;28;20139;-91
2021/07/25 04:48:44;;;;;;;12.02;7.40;;;;;;;22.18;55.88;98381.66;5073895;28;20363;-92
2021/07/25 04:51:10;;;;;;;11.35;7.38;;;;;;;22.31;55.68;98363.44;5073659;28;20037;-91
2021/07/25 04:53:38;;;;;;;14.02;7.85;;;;;;;22.39;55.67;98362.81;5074501;28;20108;-92
2021/07/25 04:56:07;;;;;;;15.77;7.73;;;;;;;22.63;55.65;98384.31;5075388;28;20044;-92
2021/07/25 04:58:38;;;;;;;11.15;7.22;;;;;;;22.72;54.86;98380.84;5078311;28;20072;-93
2021/07/25 05:01:07;;;;;;;12.95;7.72;;;;;;;22.83;54.73;98374.53;5077994;28;20516;-94
2021/07/25 05:03:33;;;;;;;11.60;7.35;;;;;;;22.96;54.55;98368.94;5078772;28;20036;-94
2021/07/25 05:06:00;;;;;;;12.82;7.03;;;;;;;23.17;53.49;98371.72;5079130;28;20037;-93
2021/07/25 05:08:26;;;;;;;11.93;7.28;;;;;;;23.45;52.96;98385.63;5078787;28;20048;-94
2021/07/25 05:11:02;;;;;;;11.20;6.78;;;;;;;23.58;53.87;98370.84;5078588;28;20106;-93
2021/07/25 05:13:33;;;;;;;10.13;6.70;;;;;;;23.73;53.68;98356.94;5078732;28;20556;-94
2021/07/25 05:16:05;;;;;;;12.95;8.13;;;;;;;23.97;53.48;98372.97;5078577;28;20525;-92
2021/07/25 05:18:37;;;;;;;12.02;7.20;;;;;;;24.24;51.96;98372.34;5078651;28;20047;-94
2021/07/25 05:21:20;;;;;;;13.50;7.68;;;;;;;24.33;52.56;98355.22;5079009;28;20033;-93
2021/07/25 05:23:47;;;;;;;12.55;7.15;;;;;;;24.41;52.80;98362.69;5078326;28;20040;-93
2021/07/25 05:26:14;;;;;;;10.70;7.57;;;;;;;24.36;51.85;98367.69;5078291;28;20436;-93
2021/07/25 05:28:42;;;;;;;14.82;8.45;;;;;;;24.38;52.39;98361.09;5078115;28;20041;-93
2021/07/25 05:31:08;;;;;;;13.80;7.78;;;;;;;24.45;51.73;98355.97;5077612;28;20045;-94
2021/07/25 05:33:36;;;;;;;13.15;7.30;;;;;;;24.58;51.28;98359.31;5077804;28;20044;-93
2021/07/25 05:36:02;;;;;;;10.70;7.25;;;;;;;24.83;49.83;98348.91;5077881;28;20575;-94
2021/07/25 05:38:28;;;;;;;12.63;7.47;;;;;;;25.16;49.54;98355.78;5078187;28;20040;-93
2021/07/25 05:40:54;;;;;;;13.30;7.80;;;;;;;25.38;49.86;98367.41;5078471;28;20098;-93
2021/07/25 05:43:20;;;;;;;16.67;8.60;;;;;;;25.31;48.58;98353.50;5077581;28;20043;-94
2021/07/25 05:45:46;;;;;;;14.65;7.95;;;;;;;25.38;49.68;98346.47;5077336;28;20502;-94
2021/07/25 05:48:11;;;;;;;10.63;7.40;;;;;;;25.59;49.41;98367.19;5077603;28;20072;-93
2021/07/25 05:50:39;;;;;;;11.35;7.38;;;;;;;25.68;47.11;98360.91;5077455;28;20043;-93
2021/07/25 05:53:05;;;;;;;12.55;7.28;;;;;;;25.85;47.30;98359.28;5077412;28;20074;-94
2021/07/25 05:55:32;;;;;;;14.02;7.85;;;;;;;25.93;45.08;98345.78;5077140;28;20036;-94
2021/07/25 05:57:59;;;;;;;12.10;6.90;;;;;;;26.17;45.60;98331.63;5077776;28;20440;-94
2021/07/25 06:00:25;;;;;;;12.13;7.40;;;;;;;26.54;44.06;98359.81;5077776;28;20281;-95
2021/07/25 06:02:53;;;;;;;11.02;7.72;;;;;;;26.74;44.00;98360.59;5077591;28;20083;-94
2021/07/25 06:05:19;;;;;;;10.67;7.40;;;;;;;26.83;43.57;98354.22;5077221;28;20067;-95
2021/07/25 06:07:47;;;;;;;14.43;7.50;;;;;;;27.08;43.25;98352.56;5077823;28;20541;-95
2021/07/25 06:10:13;;;;;;;12.00;7.65;;;;;;;27.26;42.65;98366.25;5077524;28;20051;-96
2021/07/25 06:12:40;;;;;;;11.07;7.50;;;;;;;27.02;42.82;98375.91;5077529;28;20041;-95
2021/07/25 06:15:07;;;;;;;12.23;7.60;;;;;;;26.97;43.22;98355.53;5077512;28;20517;-95
2021/07/25 06:17:33;;;;;;;13.05;7.78;;;;;;;26.66;43.64;98353.19;5078480;28;20040;-95
2021/07/25 06:19:59;;;;;;;12.32;8.20;;;;;;;26.58;43.78;98383.09;5078118;28;20047;-94
2021/07/25 06:22:24;;;;;;;14.38;8.20;;;;;;;26.42;44.31;98370.94;5077212;28;20492;-93
2021/07/25 06:24:52;;;;;;;13.00;7.85;;;;;;;26.30;44.90;98380.31;5077690;28;20502;-92
2021/07/25 06:27:17;;;;;;;10.35;7.90;;;;;;;26.27;44.97;98372.47;5077629;28;20045;-92
2021/07/25 06:29:43;;;;;;;14.30;8.15;;;;;;;26.13;45.44;98360.22;5077051;28;20132;-92
2021/07/25 06:32:09;;;;;;;13.25;8.05;;;;;;;26.31;44.90;98354.81;5077653;28;20036;-93
2021/07/25 06:34:35;;;;;;;13.30;8.50;;;;;;;26.50;44.64;98351.13;5079912;28;20418;-93
2021/07/25 06:37:01;;;;;;;12.25;8.10;;;;;;;26.70;44.66;98345.56;5078972;28;20079;-93
2021/07/25 06:39:27;;;;;;;13.50;7.88;;;;;;;26.80;43.71;98340.88;5082648;28;20048;-95
2021/07/25 06:41:58;;;;;;;13.85;8.18;;;;;;;26.86;43.83;98348.44;5081036;28;20048;-94
2021/07/25 06:44:24;;;;;;;12.50;7.45;;;;;;;26.93;43.89;98348.69;5081347;28;20052;-94
2021/07/25 06:46:49;;;;;;;12.05;8.00;;;;;;;27.10;43.08;98366.91;5079759;28;20049;-94
2021/07/25 06:49:16;;;;;;;10.43;7.53;;;;;;;27.01;43.08;98348.75;5080860;28;20473;-96
2021/07/25 06:51:41;;;;;;;15.60;8.63;;;;;;;27.15;43.06;98350.06;5081827;28;20040;-94
2021/07/25 06:54:08;;;;;;;13.73;8.23;;;;;;;27.36;42.55;98360.69;5079721;28;20048;-95
2021/07/25 06:56:34;;;;;;;13.40;8.55;;;;;;;27.54;41.95;98372.47;5077022;28;20045;-95
2021/07/25 06:59:01;;;;;;;13.02;8.38;;;;;;;27.46;42.14;98366.94;5076443;28;20041;-93
2021/07/25 07:01:28;;;;;;;12.93;8.32;;;;;;;27.72;41.68;98377.88;5074706;28;20501;-94
2021/07/25 07:03:54;;;;;;;14.93;8.48;;;;;;;27.93;41.10;98358.38;5075947;28;20044;-94
2021/07/25 07:06:20;;;;;;;12.52;8.35;;;;;;;28.12;40.87;98356.44;5076329;28;20401;-93
2021/07/25 07:08:45;;;;;;;14.70;8.73;;;;;;;28.41;40.50;98383.41;5075882;28;20042;-93
2021/07/25 07:11:11;;;;;;;15.55;9.77;;;;;;;28.52;40.21;98387.75;5076050;28;20037;-93
2021/07/25 07:13:37;;;;;;;12.65;9.10;;;;;;;28.78;40.05;98391.28;5074059;28;20445;-93
2021/07/25 07:16:04;;;;;;;12.18;9.07;;;;;;;28.76;39.43;98376.06;5071493;28;20145;-92
2021/07/25 07:18:30;;;;;;;12.10;7.95;;;;;;;28.76;39.58;98371.44;5074098;28;20039;-93
2021/07/25 07:20:56;;;;;;;12.32;8.43;;;;;;;28.88;39.81;98361.00;5073587;28;20032;-92
2021/07/25 07:23:24;;;;;;;12.35;8.35;;;;;;;28.98;38.96;98358.97;5073067;28;20064;-91
2021/07/25 07:25:51;;;;;;;13.55;8.63;;;;;;;29.20;38.51;98354.75;5072719;28;20037;-91
2021/07/25 07:28:19;;;;;;;12.73;7.97;;;;;;;29.22;38.15;98341.75;5073042;28;20528;-92
2021/07/25 07:30:47;;;;;;;13.57;7.90;;;;;;;29.27;38.24;98339.34;5072380;28;20033;-91
2021/07/25 07:33:16;;;;;;;12.93;7.90;;;;;;;29.51;37.79;98356.81;5072024;28;20090;-92
2021/07/25 07:35:43;;;;;;;15.68;8.60;;;;;;;29.12;37.76;98346.53;5072961;28;20115;-91
2021/07/25 07:38:10;;;;;;;11.60;8.32;;;;;;;29.38;38.02;98329.94;5073386;28;20494;-93
2021/07/25 07:40:37;;;;;;;20.33;8.40;;;;;;;29.64;37.63;98350.81;5072662;28;20056;-91
2021/07/25 07:43:04;;;;;;;14.05;7.90;;;;;;;29.64;37.52;98340.69;5073825;28;20044;-92
2021/07/25 07:45:31;;;;;;;14.60;8.65;;;;;;;29.62;36.94;98317.22;5072594;28;20071;-90
2021/07/25 07:47:57;;;;;;;13.25;7.47;;;;;;;29.69;36.42;98310.94;5073913;28;20506;-90
2021/07/25 07:50:24;;;;;;;12.25;7.85;;;;;;;30.03;36.69;98341.84;5074766;28;20067;-93
2021/07/25 07:52:50;;;;;;;12.77;8.40;;;;;;;29.66;36.91;98329.56;5074290;28;20102;-90
2021/07/25 07:55:17;;;;;;;14.18;8.90;;;;;;;29.69;37.13;98330.13;5075217;28;20032;-90
2021/07/25 07:57:43;;;;;;;13.48;8.60;;;;;;;29.66;36.10;98335.88;5073814;28;20066;-91
2021/07/25 08:00:11;;;;;;;15.98;8.65;;;;;;;30.08;36.36;98334.81;5072510;28;20039;-89
2021/07/25 08:02:38;;;;;;;17.50;8.57;;;;;;;30.42;34.88;98335.56;5075197;28;20040;-94
2021/07/25 08:05:06;;;;;;;13.13;8.60;;;;;;;30.71;35.02;98329.41;5074083;28;20038;-90
2021/07/25 08:07:33;;;;;;;15.82;8.88;;;;;;;30.69;33.33;98307.63;5072749;28;20043;-92
2021/07/25 08:09:59;;;;;;;14.55;8.70;;;;;;;30.56;33.49;98334.81;5079271;28;20049;-92
2021/07/25 08:12:25;;;;;;;13.35;8.68;;;;;;;30.73;32.96;98337.44;5074940;28;20040;-90
2021/07/25 08:14:51;;;;;;;13.07;8.15;;;;;;;30.66;31.60;98310.72;5074115;28;20521;-91
2021/07/25 08:17:17;;;;;;;11.98;8.55;;;;;;;30.85;32.98;98316.78;5074376;28;20045;-92
2021/07/25 08:19:43;;;;;;;13.23;8.45;;;;;;;31.04;32.22;98318.22;5071003;28;20127;-91
2021/07/25 08:22:10;;;;;;;11.13;8.07;;;;;;;30.89;32.05;98320.91;5074789;28;20064;-91
2021/07/25 08:24:40;;;;;;;14.40;8.70;;;;;;;31.06;31.85;98325.25;5073728;28;20506;-93
2021/07/25 08:27:06;;;;;;;10.15;7.70;;;;;;;31.19;32.17;98330.13;5075147;28;20494;-91
2021/07/25 08:29:32;;;;;;;15.07;8.82;;;;;;;30.82;30.67;98336.38;5073202;28;20498;-93
2021/07/25 08:31:59;;;;;;;14.27;8.45;;;;;;;30.79;30.98;98326.59;5077400;28;20048;-94
2021/07/25 08:34:25;;;;;;;13.98;8.77;;;;;;;30.94;31.24;98317.59;5077049;28;20036;-93
2021/07/25 08:36:51;;;;;;;12.60;8.35;;;;;;;31.25;30.73;98309.28;5081503;28;20037;-92
2021/07/25 08:39:18;;;;;;;13.15;8.32;;;;;;;31.32;30.99;98302.03;5077557;28;20044;-92
2021/07/25 08:42:06;;;;;;;12.40;8.18;;;;;;;31.01;31.38;98282.88;5078573;28;20098;-90
2021/07/25 08:44:41;;;;;;;14.00;8.63;;;;;;;30.71;31.59;98274.50;5076848;28;20492;-90
2021/07/25 08:47:17;;;;;;;13.82;8.50;;;;;;;30.32;32.41;98269.06;5075480;28;20051;-91
2021/07/25 08:49:51;;;;;;;13.23;9.07;;;;;;;30.08;33.24;98287.34;5076411;28;20040;-91
2021/07/25 08:52:18;;;;;;;11.77;8.05;;;;;;;29.62;34.19;98296.16;5076746;28;20774;-92
2021/07/25 08:54:44;;;;;;;14.25;8.05;;;;;;;29.43;35.02;98291.94;5075846;28;20067;-91
2021/07/25 08:57:14;;;;;;;16.60;9.18;;;;;;;29.38;34.63;98277.88;5077685;28;20041;-90
2021/07/25 08:59:42;;;;;;;11.13;8.10;;;;;;;29.57;34.03;98270.34;5077666;28;20055;-91
2021/07/25 09:02:15;;;;;;;;;;;;;;;30.14;32.20;98258.34;5075549;28;20036;-91
2021/07/25 09:04:41;;;;;;;11.75;8.43;;;;;;;30.26;33.01;98256.91;5076851;28;19923;-90
2021/07/25 09:07:07;;;;;;;11.63;7.88;;;;;;;30.20;32.62;98244.75;5076079;28;20033;-91
2021/07/25 09:09:35;;;;;;;13.05;8.30;;;;;;;30.41;31.73;98252.41;5076042;28;20055;-91
2021/07/25 09:12:00;;;;;;;12.20;8.40;;;;;;;30.50;31.79;98269.66;5076546;28;20041;-92
2021/07/25 09:14:28;;;;;;;13.10;8.43;;;;;;;30.77;31.49;98256.44;5077089;28;20452;-92
2021/07/25 09:16:54;;;;;;;11.93;7.80;;;;;;;31.24;32.00;98267.22;5074236;28;20044;-92
2021/07/25 09:19:19;;;;;;;10.75;8.23;;;;;;;31.33;30.97;98246.88;5076867;28;20047;-92
2021/07/25 09:21:49;;;;;;;12.00;7.82;;;;;;;31.69;30.63;98265.44;5076702;28;20051;-93
2021/07/25 09:24:21;;;;;;;14.60;8.93;;;;;;;31.21;30.69;98264.03;5077204;28;20085;-91
2021/07/25 09:26:56;;;;;;;13.07;8.25;;;;;;;31.64;30.43;98265.16;5080753;28;20055;-92
2021/07/25 09:29:29;;;;;;;15.52;9.13;;;;;;;31.87;30.29;98270.53;5077373;28;20433;-92
2021/07/25 09:32:13;;;;;;;12.68;8.57;;;;;;;31.95;30.20;98283.38;5082633;28;20041;-93
2021/07/25 09:34:40;;;;;;;12.23;8.35;;;;;;;31.77;30.10;98286.47;5080445;28;20094;-93
2021/07/25 09:37:07;;;;;;;13.50;8.82;;;;;;;31.79;31.09;98291.78;5081411;28;20036;-93
2021/07/25 09:39:35;;;;;;;13.73;9.03;;;;;;;31.36;31.73;98306.13;5080765;28;20039;-91
2021/07/25 09:42:02;;;;;;;11.98;8.82;;;;;;;31.11;30.57;98298.06;5079184;28;20102;-91
2021/07/25 09:44:44;;;;;;;15.75;9.82;;;;;;;31.41;29.66;98303.66;5080064;28;20048;-91
2021/07/25 09:47:24;;;;;;;13.98;8.60;;;;;;;31.64;29.35;98297.25;5078195;28;20051;-93
2021/07/25 09:49:50;;;;;;;14.18;8.82;;;;;;;31.44;29.20;98286.81;5078532;28;20032;-91
2021/07/25 09:52:16;;;;;;;15.13;8.82;;;;;;;31.29;28.72;98289.53;5078436;28;20387;-94
2021/07/25 09:54:42;;;;;;;12.20;8.65;;;;;;;31.22;28.58;98283.03;5083500;28;20128;-92
2021/07/25 09:57:10;;;;;;;16.20;8.85;;;;;;;31.32;28.62;98286.38;5078317;28;20075;-91
2021/07/25 09:59:38;;;;;;;12.38;7.93;;;;;;;31.59;29.08;98317.06;5077705;28;20094;-90
2021/07/25 10:02:03;;;;;;;13.13;8.47;;;;;;;31.95;28.61;98326.53;5077611;28;20040;-94
2021/07/25 10:04:29;;;;;;;12.07;9.00;;;;;;;31.63;29.49;98334.06;5077716;28;20041;-92
2021/07/25 10:06:55;;;;;;;15.27;9.07;;;;;;;31.51;29.82;98350.13;5079822;28;20041;-92
2021/07/25 10:09:22;;;;;;;11.20;8.00;;;;;;;31.57;28.90;98359.53;5079584;28;20045;-93
2021/07/25 10:11:52;;;;;;;12.45;7.53;;;;;;;32.27;28.05;98370.19;5076149;28;20060;-91
2021/07/25 10:14:19;;;;;;;12.52;8.32;;;;;;;32.11;28.53;98378.59;5077904;28;20048;-94
2021/07/25 10:20:00;;;;;;;14.68;7.90;;;;;;;32.32;28.13;98400.72;5158147;27;20374;-89
2021/07/25 10:22:30;;;;;;;11.90;7.63;;;;;;;32.25;28.43;98440.16;5155536;27;20039;-92
2021/07/25 10:24:57;;;;;;;14.57;8.00;;;;;;;32.28;28.14;98439.81;5158626;27;20456;-91
2021/07/25 10:27:24;;;;;;;13.05;7.10;;;;;;;32.13;26.09;98440.63;5156589;27;20495;-93
2021/07/25 10:29:53;;;;;;;18.98;7.32;;;;;;;31.97;25.19;98449.03;5155575;27;20035;-92
2021/07/25 10:32:20;;;;;;;17.00;7.05;;;;;;;32.05;25.22;98462.72;5145337;27;20043;-93
2021/07/25 10:34:47;;;;;;;14.20;7.30;;;;;;;32.06;26.10;98478.19;5152491;27;20054;-92
2021/07/25 10:37:15;;;;;;;16.55;7.55;;;;;;;31.70;26.42;98456.81;5153849;27;20369;-91
2021/07/25 10:39:42;;;;;;;;;;;;;;;31.98;27.17;98471.91;5158798;27;20460;-91
2021/07/25 10:42:11;;;;;;;17.25;7.18;;;;;;;32.37;26.71;98457.09;5158223;27;19922;-93
2021/07/25 10:44:41;;;;;;;10.75;6.70;;;;;;;32.68;26.53;98448.66;5156517;27;20039;-90
2021/07/25 10:47:23;;;;;;;13.45;7.28;;;;;;;32.78;26.96;98443.72;5148630;27;20035;-90
2021/07/25 10:49:57;;;;;;;14.10;7.20;;;;;;;32.77;26.54;98447.53;5150280;27;20130;-92
2021/07/25 10:52:24;;;;;;;12.30;6.80;;;;;;;32.26;26.18;98423.47;5151542;27;20453;-91
2021/07/25 10:54:50;;;;;;;12.53;7.07;;;;;;;32.00;26.71;98426.69;5151930;27;20035;-95
2021/07/25 10:57:18;;;;;;;14.95;7.15;;;;;;;31.58;34.21;98406.09;5152833;27;20299;-92
2021/07/25 10:59:45;;;;;;;14.82;7.10;;;;;;;30.97;33.44;98405.09;5153622;27;20046;-93
2021/07/25 11:02:13;;;;;;;14.30;7.05;;;;;;;30.54;31.68;98402.72;5153761;27;20039;-90
2021/07/25 11:05:07;;;;;;;8.87;6.13;;;;;;;30.28;30.09;98375.56;5153851;27;20039;-94
2021/07/25 11:07:36;;;;;;;9.93;5.75;;;;;;;30.10;27.11;98360.16;5150447;27;20310;-92
2021/07/25 11:10:05;;;;;;;11.43;5.60;;;;;;;30.05;26.81;98368.03;5152474;27;20091;-93
2021/07/25 11:13:17;;;;;;;10.38;6.13;;;;;;;30.15;26.61;98388.94;5151316;27;20127;-91
2021/07/25 11:15:44;;;;;;;10.80;5.53;;;;;;;30.30;26.60;98384.47;5148176;27;20047;-91
2021/07/25 11:18:12;;;;;;;9.63;5.38;;;;;;;30.59;24.83;98391.22;5152114;27;20074;-93
2021/07/25 11:20:45;;;;;;;11.07;5.38;;;;;;;30.73;25.18;98395.97;5151932;27;20035;-93
2021/07/25 11:26:38;;;;;;;10.88;5.82;;;;;;;30.50;27.72;98407.69;5091625;27;20171;-91
2021/07/25 11:29:06;;;;;;;12.63;5.95;;;;;;;30.53;28.05;98419.34;5087204;28;20045;-90
2021/07/25 11:31:33;;;;;;;;;;;;;;;30.52;29.03;98428.63;5091251;28;20079;-91
2021/07/25 11:33:59;;;;;;;13.93;5.45;;;;;;;30.50;26.91;98437.88;5092468;28;19919;-92
2021/07/25 11:36:25;;;;;;;10.18;5.75;;;;;;;30.63;26.66;98425.50;5091450;28;20125;-94
2021/07/25 11:38:54;;;;;;;11.88;5.20;;;;;;;30.87;25.87;98417.16;5087810;28;20556;-92